createdAt,value
2023-11-21T00:00:19.971Z,45.13
2023-11-21T00:02:48.189Z,45.63
2023-11-21T00:05:17.131Z,50.73
2023-11-21T00:07:45.770Z,46.57
2023-11-21T00:10:15.836Z,68.47
2023-11-21T00:12:44.760Z,42.00
2023-11-21T00:15:13.102Z,51.80
2023-11-21T00:17:44.225Z,48.47
2023-11-21T00:20:15.789Z,68.13
2023-11-21T00:22:44.539Z,72.77
2023-11-21T00:25:12.910Z,78.57
2023-11-21T00:27:40.033Z,77.67
2023-11-21T00:30:10.751Z,69.17
2023-11-21T00:32:39.293Z,132.60
2023-11-21T00:35:08.769Z,72.40
2023-11-21T00:37:37.055Z,76.13
2023-11-21T00:40:07.534Z,100.73
2023-11-21T00:42:36.232Z,100.80
2023-11-21T00:45:05.093Z,119.43
2023-11-21T00:47:33.296Z,110.50
2023-11-21T00:50:01.745Z,126.37
2023-11-21T00:52:30.978Z,105.87
2023-11-21T00:55:00.280Z,119.43
2023-11-21T00:57:28.488Z,107.07
2023-11-21T00:59:56.426Z,108.67
2023-11-21T01:02:24.239Z,104.60
2023-11-21T01:04:52.241Z,105.37
2023-11-21T01:07:21.879Z,110.80
2023-11-21T01:09:51.865Z,116.00
2023-11-21T01:12:21.126Z,112.37
2023-11-21T01:14:49.604Z,111.77
2023-11-21T01:17:17.850Z,114.00
2023-11-21T01:19:46.258Z,133.67
2023-11-21T01:22:14.133Z,132.63
2023-11-21T01:24:42.155Z,147.83
2023-11-21T01:27:12.114Z,121.70
2023-11-21T01:29:39.921Z,129.30
2023-11-21T01:32:09.195Z,140.60
2023-11-21T01:34:39.082Z,146.43
2023-11-21T01:37:07.652Z,142.10
2023-11-21T01:39:35.384Z,160.80
2023-11-21T01:42:03.593Z,181.43
2023-11-21T01:44:33.644Z,169.27
2023-11-21T01:47:06.295Z,189.83
2023-11-21T01:49:34.615Z,205.87
2023-11-21T01:52:03.431Z,200.70
2023-11-21T01:54:32.496Z,194.73
2023-11-21T01:57:03.799Z,182.50
2023-11-21T01:59:38.085Z,190.43
2023-11-21T02:02:07.359Z,170.60
2023-11-21T02:04:37.842Z,178.93
2023-11-21T02:07:06.399Z,156.00
2023-11-21T02:09:34.304Z,166.90
2023-11-21T02:12:06.464Z,145.23
2023-11-21T02:14:35.612Z,135.33
2023-11-21T02:17:04.864Z,134.70
2023-11-21T02:19:33.704Z,123.90
2023-11-21T02:22:04.418Z,129.43
2023-11-21T02:24:33.928Z,122.37
2023-11-21T02:27:01.647Z,112.20
2023-11-21T02:29:29.877Z,111.47
2023-11-21T02:31:58.134Z,101.83
2023-11-21T02:34:26.974Z,121.30
2023-11-21T02:36:55.180Z,117.10
2023-11-21T02:39:24.800Z,134.70
2023-11-21T02:41:55.022Z,103.50
2023-11-21T02:44:22.812Z,113.30
2023-11-21T02:46:50.821Z,106.87
2023-11-21T02:49:18.925Z,96.23
2023-11-21T02:51:46.719Z,109.80
2023-11-21T02:54:16.265Z,111.43
2023-11-21T02:56:45.243Z,73.23
2023-11-21T02:59:14.460Z,86.23
2023-11-21T03:01:42.300Z,70.30
2023-11-21T03:04:10.749Z,93.87
2023-11-21T03:06:38.923Z,75.67
2023-11-21T03:09:07.644Z,79.17
2023-11-21T03:11:35.877Z,77.23
2023-11-21T03:16:57.642Z,66.27
2023-11-21T03:19:25.681Z,61.67
2023-11-21T03:21:54.449Z,71.60
2023-11-21T03:24:23.614Z,65.80
2023-11-21T03:26:52.075Z,72.40
2023-11-21T03:29:19.901Z,66.60
2023-11-21T03:31:47.916Z,56.73
2023-11-21T03:34:25.905Z,56.80
2023-11-21T03:36:54.197Z,69.37
2023-11-21T03:39:21.953Z,52.40
2023-11-21T03:41:51.146Z,58.03
2023-11-21T03:44:19.140Z,63.20
2023-11-21T03:46:48.102Z,74.13
2023-11-21T03:49:16.029Z,46.47
2023-11-21T03:51:45.472Z,45.03
2023-11-21T03:54:13.235Z,56.70
2023-11-21T03:56:41.296Z,44.53
2023-11-21T03:59:09.644Z,52.07
2023-11-21T04:01:37.471Z,58.27
2023-11-21T04:04:06.346Z,52.77
2023-11-21T04:06:34.517Z,61.30
2023-11-21T04:09:05.673Z,49.00
2023-11-21T04:11:33.738Z,57.70
2023-11-21T04:14:01.698Z,48.17
2023-11-21T04:16:29.597Z,43.60
2023-11-21T04:18:58.373Z,42.93
2023-11-21T04:21:26.344Z,37.93
2023-11-21T04:23:54.059Z,40.40
2023-11-21T04:26:23.157Z,47.90
2023-11-21T04:28:51.974Z,34.10
2023-11-21T04:31:19.843Z,36.07
2023-11-21T04:33:47.816Z,39.77
2023-11-21T04:36:15.705Z,29.83
2023-11-21T04:38:43.883Z,26.83
2023-11-21T04:41:11.812Z,28.70
2023-11-21T04:43:41.572Z,31.77
2023-11-21T04:46:09.399Z,31.37
2023-11-21T04:48:37.089Z,36.00
2023-11-21T04:51:06.480Z,37.93
2023-11-21T04:53:35.651Z,38.23
2023-11-21T04:56:04.570Z,36.87
2023-11-21T04:58:32.480Z,43.70
2023-11-21T05:01:04.557Z,47.57
2023-11-21T05:03:35.152Z,42.20
2023-11-21T05:06:02.973Z,37.23
2023-11-21T05:08:30.910Z,33.30
2023-11-21T05:10:58.940Z,37.33
2023-11-21T05:13:29.119Z,35.23
2023-11-21T05:15:57.800Z,27.70
2023-11-21T05:18:28.532Z,39.07
2023-11-21T05:20:56.410Z,29.13
2023-11-21T05:23:24.136Z,28.20
2023-11-21T05:25:52.348Z,34.23
2023-11-21T05:28:20.088Z,34.53
2023-11-21T05:30:48.175Z,37.50
2023-11-21T05:33:16.108Z,26.57
2023-11-21T05:35:45.379Z,37.03
2023-11-21T05:38:14.131Z,28.30
2023-11-21T05:40:42.698Z,32.57
2023-11-21T05:43:10.507Z,31.00
2023-11-21T05:45:38.272Z,31.00
2023-11-21T05:48:08.370Z,34.23
2023-11-21T05:50:36.147Z,34.13
2023-11-21T05:53:06.004Z,29.20
2023-11-21T05:55:34.308Z,31.80
2023-11-21T05:58:02.332Z,39.33
2023-11-21T06:00:30.558Z,28.97
2023-11-21T06:02:58.690Z,36.97
2023-11-21T06:05:27.535Z,34.80
2023-11-21T06:07:57.184Z,34.77
2023-11-21T06:10:27.267Z,35.30
2023-11-21T06:12:55.172Z,40.87
2023-11-21T06:15:24.198Z,35.80
2023-11-21T06:17:54.449Z,30.50
2023-11-21T06:20:23.828Z,37.27
2023-11-21T06:22:53.080Z,39.27
2023-11-21T06:25:21.083Z,34.33
2023-11-21T06:27:50.686Z,33.07
2023-11-21T06:30:21.431Z,37.33
2023-11-21T06:32:49.646Z,34.43
2023-11-21T06:35:18.355Z,29.57
2023-11-21T06:37:51.120Z,24.40
2023-11-21T06:40:21.273Z,23.47
2023-11-21T06:42:52.859Z,34.70
2023-11-21T06:45:21.222Z,25.80
2023-11-21T06:47:50.095Z,29.00
2023-11-21T06:50:18.256Z,25.63
2023-11-21T06:52:46.103Z,26.20
2023-11-21T06:55:14.207Z,28.10
2023-11-21T06:57:42.180Z,27.63
2023-11-21T07:00:12.414Z,24.03
2023-11-21T07:02:40.751Z,29.60
2023-11-21T07:05:10.266Z,26.07
2023-11-21T07:07:38.662Z,25.30
2023-11-21T07:10:07.321Z,32.60
2023-11-21T07:12:36.251Z,26.23
2023-11-21T07:15:06.582Z,22.33
2023-11-21T07:17:38.371Z,30.53
2023-11-21T07:20:08.781Z,20.33
2023-11-21T07:22:36.805Z,20.37
2023-11-21T07:25:05.169Z,26.27
2023-11-21T07:27:34.943Z,20.40
2023-11-21T07:30:05.580Z,22.37
2023-11-21T07:32:33.977Z,23.90
2023-11-21T07:35:03.384Z,20.20
2023-11-21T07:37:53.085Z,20.10
2023-11-21T07:40:20.916Z,24.27
2023-11-21T07:42:49.835Z,22.13
2023-11-21T07:45:18.437Z,21.67
2023-11-21T07:47:46.349Z,25.37
2023-11-21T07:50:15.958Z,21.97
2023-11-21T07:52:44.316Z,17.13
2023-11-21T07:55:12.694Z,18.43
2023-11-21T07:57:40.774Z,19.23
2023-11-21T08:00:10.476Z,16.30
2023-11-21T08:02:43.481Z,18.80
2023-11-21T08:05:18.458Z,18.57
2023-11-21T08:07:54.080Z,22.30
2023-11-21T08:10:23.400Z,18.17
2023-11-21T08:12:51.628Z,21.10
2023-11-21T08:15:19.425Z,22.80
2023-11-21T08:17:48.389Z,20.17
2023-11-21T08:20:17.642Z,19.00
2023-11-21T08:22:45.836Z,22.87
2023-11-21T08:25:15.251Z,21.57
2023-11-21T08:27:42.993Z,20.47
2023-11-21T08:30:11.145Z,22.87
2023-11-21T08:32:39.158Z,22.87
2023-11-21T08:35:07.697Z,22.70
2023-11-21T08:37:38.539Z,29.37
2023-11-21T08:40:10.594Z,23.67
2023-11-21T08:42:39.786Z,30.53
2023-11-21T08:45:10.084Z,27.20
2023-11-21T08:47:38.283Z,29.73
2023-11-21T08:50:07.206Z,22.87
2023-11-21T08:52:35.175Z,31.83
2023-11-21T08:55:08.912Z,25.53
2023-11-21T08:57:37.271Z,27.00
2023-11-21T09:00:09.262Z,30.77
2023-11-21T09:02:38.262Z,22.70
2023-11-21T09:05:07.497Z,32.23
2023-11-21T09:07:35.534Z,22.97
2023-11-21T09:10:03.256Z,28.40
2023-11-21T09:12:33.864Z,27.47
2023-11-21T09:15:01.909Z,27.50
2023-11-21T09:17:31.204Z,27.70
2023-11-21T09:19:59.132Z,24.63
2023-11-21T09:22:27.244Z,30.53
2023-11-21T09:24:55.072Z,29.33
2023-11-21T09:27:22.803Z,28.63
2023-11-21T09:29:50.822Z,32.30
2023-11-21T09:32:19.831Z,19.73
2023-11-21T09:34:49.177Z,24.40
2023-11-21T09:37:17.274Z,23.70
2023-11-21T09:39:45.213Z,24.57
2023-11-21T09:42:15.800Z,28.67
2023-11-21T09:44:48.873Z,14.50
2023-11-21T09:47:17.646Z,19.43
2023-11-21T09:49:49.325Z,24.13
2023-11-21T09:52:28.926Z,17.93
2023-11-21T09:54:58.242Z,16.67
2023-11-21T09:57:26.316Z,16.07
2023-11-21T09:59:57.153Z,12.50
2023-11-21T10:02:27.437Z,14.03
2023-11-21T10:04:55.585Z,14.47
2023-11-21T10:07:24.875Z,11.57
2023-11-21T10:09:53.397Z,14.23
2023-11-21T10:12:22.805Z,11.73
2023-11-21T10:14:50.994Z,8.63
2023-11-21T10:17:20.787Z,10.23
2023-11-21T10:19:49.035Z,11.00
2023-11-21T10:22:17.508Z,10.43
2023-11-21T10:24:52.459Z,6.73
2023-11-21T10:27:22.315Z,8.23
2023-11-21T10:29:53.597Z,10.50
2023-11-21T10:32:21.438Z,10.20
2023-11-21T10:34:57.931Z,11.63
2023-11-21T10:37:25.668Z,11.97
2023-11-21T10:39:59.302Z,10.37
2023-11-21T10:42:28.092Z,10.60
2023-11-21T10:44:57.016Z,8.00
2023-11-21T10:47:25.839Z,5.40
2023-11-21T10:49:54.167Z,9.47
2023-11-21T10:52:22.385Z,8.10
2023-11-21T10:54:50.443Z,7.57
2023-11-21T10:57:20.364Z,9.20
2023-11-21T10:59:49.957Z,9.57
2023-11-21T11:02:23.526Z,8.13
2023-11-21T11:04:52.084Z,10.47
2023-11-21T11:07:21.405Z,6.80
2023-11-21T11:09:49.481Z,9.80
2023-11-21T11:12:18.610Z,11.50
2023-11-21T11:14:49.212Z,14.73
2023-11-21T11:17:17.431Z,11.00
2023-11-21T11:19:45.963Z,12.70
2023-11-21T11:22:19.813Z,10.43
2023-11-21T11:24:56.811Z,12.70
2023-11-21T11:27:33.248Z,11.20
2023-11-21T11:30:11.473Z,8.67
2023-11-21T11:32:46.004Z,16.57
2023-11-21T11:35:19.416Z,11.40
2023-11-21T11:38:09.925Z,12.43
2023-11-21T11:40:41.371Z,11.53
2023-11-21T11:43:09.607Z,9.77
2023-11-21T11:45:42.652Z,9.67
2023-11-21T11:48:15.213Z,13.67
2023-11-21T11:50:44.540Z,8.13
2023-11-21T11:53:16.861Z,12.13
2023-11-21T11:55:45.587Z,9.43
2023-11-21T11:58:13.765Z,17.97
2023-11-21T12:00:44.938Z,9.83
2023-11-21T12:03:14.681Z,10.87
2023-11-21T12:05:46.368Z,11.77
2023-11-21T12:08:15.024Z,8.40
2023-11-21T12:10:43.584Z,8.67
2023-11-21T12:13:14.046Z,6.70
2023-11-21T12:15:44.326Z,8.40
2023-11-21T12:18:12.913Z,7.20
2023-11-21T12:20:42.379Z,8.47
2023-11-21T12:23:12.354Z,7.60
2023-11-21T12:25:43.766Z,7.57
2023-11-21T12:28:14.286Z,5.60
2023-11-21T12:30:44.954Z,5.73
2023-11-21T12:33:19.635Z,4.87
2023-11-21T12:35:54.952Z,7.50
2023-11-21T12:38:26.040Z,5.47
2023-11-21T12:40:56.006Z,9.10
2023-11-21T12:43:23.813Z,5.07
2023-11-21T12:45:53.986Z,6.73
2023-11-21T12:48:25.426Z,4.93
2023-11-21T12:50:54.501Z,4.27
2023-11-21T12:53:22.353Z,7.97
2023-11-21T12:55:52.663Z,6.53
2023-11-21T12:58:24.202Z,9.07
2023-11-21T13:00:55.160Z,8.93
2023-11-21T13:03:26.887Z,12.93
2023-11-21T13:05:58.046Z,7.10
2023-11-21T13:08:27.122Z,7.70
2023-11-21T13:10:57.782Z,9.17
2023-11-21T13:13:28.951Z,10.67
2023-11-21T13:16:01.644Z,9.40
2023-11-21T13:18:32.573Z,7.90
2023-11-21T13:21:01.325Z,9.60
2023-11-21T13:23:30.286Z,8.17
2023-11-21T13:26:04.939Z,10.63
2023-11-21T13:28:35.457Z,12.47
2023-11-21T13:31:11.771Z,9.63
2023-11-21T13:33:42.209Z,10.17
2023-11-21T13:36:12.197Z,11.27
2023-11-21T13:38:43.570Z,9.80
2023-11-21T13:41:15.396Z,14.07
2023-11-21T13:43:45.222Z,13.60
2023-11-21T13:46:18.409Z,14.90
2023-11-21T13:48:52.129Z,14.47
2023-11-21T13:51:21.629Z,15.60
2023-11-21T13:53:52.046Z,18.30
2023-11-21T13:56:25.650Z,17.77
2023-11-21T13:58:55.035Z,18.13
2023-11-21T14:01:46.260Z,17.37
2023-11-21T14:04:20.774Z,18.17
2023-11-21T14:06:55.749Z,23.03
2023-11-21T14:09:26.041Z,23.37
2023-11-21T14:11:54.794Z,18.70
2023-11-21T14:14:25.114Z,20.13
2023-11-21T14:16:54.665Z,22.43
2023-11-21T14:19:22.920Z,20.43
2023-11-21T14:21:51.213Z,25.93
2023-11-21T14:24:19.518Z,25.10
2023-11-21T14:26:48.198Z,29.07
2023-11-21T14:29:18.711Z,31.93
2023-11-21T14:31:46.744Z,34.63
2023-11-21T14:34:19.505Z,31.67
2023-11-21T14:36:50.704Z,40.97
2023-11-21T14:39:24.416Z,36.93
2023-11-21T14:41:57.112Z,36.50
2023-11-21T14:44:27.608Z,42.10
2023-11-21T14:46:59.030Z,38.97
2023-11-21T14:49:36.592Z,40.20
2023-11-21T14:52:05.102Z,43.30
2023-11-21T14:54:41.550Z,43.30
2023-11-21T14:57:12.671Z,49.10
2023-11-21T14:59:44.381Z,50.83
2023-11-21T15:02:23.905Z,52.33
2023-11-21T15:04:54.363Z,56.40
2023-11-21T15:07:21.777Z,62.73
2023-11-21T15:09:50.971Z,55.03
2023-11-21T15:12:17.936Z,54.57
2023-11-21T15:14:49.077Z,55.50
2023-11-21T15:17:24.226Z,51.27
2023-11-21T15:19:53.408Z,49.67
2023-11-21T15:22:22.438Z,56.20
2023-11-21T15:24:50.879Z,50.30
2023-11-21T15:27:19.681Z,56.33
2023-11-21T15:29:48.072Z,51.30
2023-11-21T15:32:15.932Z,56.20
2023-11-21T15:34:43.728Z,53.07
2023-11-21T15:37:13.154Z,51.63
2023-11-21T15:39:42.688Z,40.83
2023-11-21T15:42:11.293Z,50.73
2023-11-21T15:44:39.819Z,43.30
2023-11-21T15:47:09.917Z,42.43
2023-11-21T15:49:38.472Z,45.03
2023-11-21T15:52:07.955Z,45.57
2023-11-21T15:54:39.193Z,40.20
2023-11-21T15:57:07.573Z,44.20
2023-11-21T15:59:35.600Z,44.13
2023-11-21T16:02:06.356Z,47.70
2023-11-21T16:04:34.815Z,42.60
2023-11-21T16:07:02.819Z,42.17
2023-11-21T16:09:32.357Z,42.60
2023-11-21T16:12:03.574Z,41.00
2023-11-21T16:14:36.728Z,39.90
2023-11-21T16:17:04.944Z,42.77
2023-11-21T16:19:32.949Z,41.40
2023-11-21T16:22:01.398Z,41.00
2023-11-21T16:24:29.660Z,44.97
2023-11-21T16:26:57.893Z,39.17
2023-11-21T16:29:27.577Z,37.73
2023-11-21T16:31:55.636Z,30.77
2023-11-21T16:34:23.766Z,36.20
2023-11-21T16:36:52.076Z,41.07
2023-11-21T16:39:22.811Z,43.23
2023-11-21T16:41:50.988Z,37.73
2023-11-21T16:44:19.766Z,38.73
2023-11-21T16:46:51.191Z,42.20
2023-11-21T16:49:19.209Z,33.90
2023-11-21T16:51:47.122Z,32.03
2023-11-21T16:54:16.275Z,30.30
2023-11-21T16:56:44.856Z,28.40
2023-11-21T16:59:12.680Z,33.23
2023-11-21T17:01:40.655Z,33.97
2023-11-21T17:04:10.708Z,29.83
2023-11-21T17:06:38.464Z,30.77
2023-11-21T17:09:10.899Z,31.87
2023-11-21T17:11:39.159Z,37.10
2023-11-21T17:14:07.513Z,29.80
2023-11-21T17:16:36.283Z,34.00
2023-11-21T17:19:04.810Z,30.33
2023-11-21T17:21:35.753Z,29.33
2023-11-21T17:24:03.450Z,29.80
2023-11-21T17:26:32.248Z,29.73
2023-11-21T17:29:00.704Z,34.40
2023-11-21T17:31:28.829Z,28.97
2023-11-21T17:33:56.936Z,33.67
2023-11-21T17:36:25.815Z,27.47
2023-11-21T17:38:55.266Z,28.23
2023-11-21T17:41:23.542Z,32.13
2023-11-21T17:43:51.667Z,37.23
2023-11-21T17:46:20.779Z,29.60
2023-11-21T17:48:48.790Z,32.30
2023-11-21T17:51:17.026Z,31.93
2023-11-21T17:53:45.747Z,29.87
2023-11-21T17:56:16.836Z,26.20
2023-11-21T17:58:45.683Z,27.47
2023-11-21T18:01:14.360Z,28.13
2023-11-21T18:03:42.413Z,25.00
2023-11-21T18:06:13.967Z,24.03
2023-11-21T18:08:43.106Z,21.40
2023-11-21T18:11:11.100Z,25.43
2023-11-21T18:13:40.613Z,24.17
2023-11-21T18:16:08.623Z,24.40
2023-11-21T18:18:37.350Z,19.80
2023-11-21T18:21:05.520Z,21.53
2023-11-21T18:23:33.449Z,22.47
2023-11-21T18:26:01.181Z,22.50
2023-11-21T18:28:29.524Z,21.00
2023-11-21T18:30:58.591Z,21.10
2023-11-21T18:33:27.181Z,22.97
2023-11-21T18:35:55.243Z,24.77
2023-11-21T18:38:23.090Z,19.93
2023-11-21T18:40:52.251Z,27.80
2023-11-21T18:43:20.450Z,22.20
2023-11-21T18:45:48.148Z,21.40
2023-11-21T18:48:17.578Z,19.20
2023-11-21T18:50:46.246Z,23.00
2023-11-21T18:53:16.277Z,24.30
2023-11-21T18:55:45.794Z,22.30
2023-11-21T18:58:13.866Z,24.90
2023-11-21T19:00:41.644Z,25.17
2023-11-21T19:03:10.332Z,25.40
2023-11-21T19:05:39.791Z,21.57
2023-11-21T19:08:07.995Z,20.57
2023-11-21T19:10:38.369Z,18.93
2023-11-21T19:13:07.769Z,20.10
2023-11-21T19:15:35.604Z,24.83
2023-11-21T19:18:04.436Z,22.50
2023-11-21T19:20:33.596Z,23.90
2023-11-21T19:23:02.874Z,44.37
2023-11-21T19:25:30.563Z,17.30
2023-11-21T19:27:58.710Z,22.33
2023-11-21T19:30:26.548Z,22.60
2023-11-21T19:32:56.384Z,20.83
2023-11-21T19:35:25.350Z,22.87
2023-11-21T19:37:53.196Z,22.33
2023-11-21T19:40:24.280Z,16.60
2023-11-21T19:42:53.050Z,27.67
2023-11-21T19:45:21.102Z,19.47
2023-11-21T19:47:49.104Z,31.80
2023-11-21T19:50:17.861Z,17.50
2023-11-21T19:52:45.702Z,22.03
2023-11-21T19:55:15.006Z,19.67
2023-11-21T19:57:44.975Z,32.13
2023-11-21T20:00:13.427Z,23.50
2023-11-21T20:02:41.747Z,29.43
2023-11-21T20:05:10.078Z,22.30
2023-11-21T20:07:37.817Z,32.70
2023-11-21T20:10:05.958Z,23.07
2023-11-21T20:12:34.014Z,26.00
2023-11-21T20:15:03.093Z,20.50
2023-11-21T20:17:31.351Z,20.60
2023-11-21T20:19:59.502Z,17.50
2023-11-21T20:22:27.230Z,25.30
2023-11-21T20:24:55.190Z,30.63
2023-11-21T20:27:22.923Z,23.20
2023-11-21T20:29:50.741Z,18.63
2023-11-21T20:32:25.273Z,23.27
2023-11-21T20:34:54.161Z,24.67
2023-11-21T20:37:22.483Z,19.80
2023-11-21T20:39:50.835Z,26.77
2023-11-21T20:42:18.544Z,21.60
2023-11-21T20:44:46.335Z,23.47
2023-11-21T20:47:14.909Z,23.17
2023-11-21T20:49:48.638Z,29.00
2023-11-21T20:52:39.315Z,26.37
2023-11-21T20:55:07.751Z,24.70
2023-11-21T20:57:35.855Z,27.93
2023-11-21T21:00:11.262Z,27.20
2023-11-21T21:02:39.608Z,24.37
2023-11-21T21:05:10.847Z,24.77
2023-11-21T21:07:38.849Z,33.67
2023-11-21T21:10:07.191Z,36.07
2023-11-21T21:12:34.982Z,38.23
2023-11-21T21:15:04.210Z,24.30
2023-11-21T21:17:33.432Z,29.30
2023-11-21T21:20:01.415Z,30.30
2023-11-21T21:22:30.815Z,19.57
2023-11-21T21:24:58.802Z,25.33
2023-11-21T21:27:26.890Z,25.43
2023-11-21T21:29:54.779Z,24.00
2023-11-21T21:32:23.249Z,21.13
2023-11-21T21:34:55.566Z,21.80
2023-11-21T21:37:23.519Z,28.80
2023-11-21T21:39:52.604Z,28.27
2023-11-21T21:42:20.534Z,16.57
2023-11-21T21:44:48.406Z,17.67
2023-11-21T21:47:16.310Z,27.20
2023-11-21T21:49:44.109Z,35.13
2023-11-21T21:52:12.085Z,43.87
2023-11-21T21:54:40.675Z,33.70
2023-11-21T21:57:09.842Z,27.33
2023-11-21T21:59:39.336Z,24.70
2023-11-21T22:02:07.723Z,31.87
2023-11-21T22:04:36.096Z,29.93
2023-11-21T22:07:04.249Z,27.07
2023-11-21T22:09:34.138Z,28.47
2023-11-21T22:12:02.897Z,28.63
2023-11-21T22:14:32.033Z,32.83
2023-11-21T22:16:59.806Z,29.00
2023-11-21T22:19:27.996Z,31.37
2023-11-21T22:21:55.861Z,28.73
2023-11-21T22:24:23.804Z,34.93
2023-11-21T22:26:51.697Z,36.60
2023-11-21T22:29:19.434Z,20.77
2023-11-21T22:31:50.033Z,21.87
2023-11-21T22:34:18.660Z,24.90
2023-11-21T22:36:46.605Z,35.20
2023-11-21T22:39:15.646Z,30.87
2023-11-21T22:41:44.471Z,28.23
2023-11-21T22:44:12.618Z,25.47
2023-11-21T22:46:43.064Z,23.00
2023-11-21T22:49:14.026Z,22.83
2023-11-21T22:51:41.922Z,28.23
2023-11-21T22:54:10.037Z,25.00
2023-11-21T22:56:39.301Z,28.33
2023-11-21T22:59:07.500Z,23.50
2023-11-21T23:01:36.415Z,22.60
2023-11-21T23:04:05.144Z,33.10
2023-11-21T23:06:34.548Z,34.73
2023-11-21T23:09:02.820Z,26.90
2023-11-21T23:11:30.810Z,33.07
2023-11-21T23:13:58.808Z,22.03
2023-11-21T23:16:27.600Z,33.27
2023-11-21T23:18:55.409Z,26.53
2023-11-21T23:21:23.405Z,21.07
2023-11-21T23:23:52.521Z,25.47
2023-11-21T23:26:20.603Z,26.07
2023-11-21T23:28:49.045Z,21.80
2023-11-21T23:31:17.256Z,34.37
2023-11-21T23:33:45.585Z,29.67
2023-11-21T23:36:13.449Z,23.60
2023-11-21T23:38:43.196Z,23.57
2023-11-21T23:41:13.136Z,19.80
2023-11-21T23:43:41.004Z,19.27
2023-11-21T23:46:08.731Z,14.13
2023-11-21T23:48:36.757Z,23.50
2023-11-21T23:51:04.596Z,24.73
2023-11-21T23:53:32.566Z,19.90
2023-11-21T23:56:01.151Z,21.70
2023-11-21T23:58:30.278Z,22.83
